sensor_id;sensor_type;location;lat;lon;timestamp;pressure;altitude;pressure_sealevel;temperature
69186;BMP280;56298;49.246;9.410;2022-12-05T00:01:36;99197.47;;;4.35
69186;BMP280;56298;49.246;9.410;2022-12-05T00:04:05;99209.09;;;4.26
69186;BMP280;56298;49.246;9.410;2022-12-05T00:06:32;99206.53;;;4.30
69186;BMP280;56298;49.246;9.410;2022-12-05T00:08:58;99218.88;;;4.36
69186;BMP280;56298;49.246;9.410;2022-12-05T00:11:28;99226.03;;;4.32
69186;BMP280;56298;49.246;9.410;2022-12-05T00:13:55;99228.75;;;4.32
69186;BMP280;56298;49.246;9.410;2022-12-05T00:16:23;99231.13;;;4.25
69186;BMP280;56298;49.246;9.410;2022-12-05T00:18:49;99224.13;;;4.33
69186;BMP280;56298;49.246;9.410;2022-12-05T00:21:23;99223.50;;;4.36
69186;BMP280;56298;49.246;9.410;2022-12-05T00:23:50;99231.31;;;4.37
69186;BMP280;56298;49.246;9.410;2022-12-05T00:26:16;99240.09;;;4.34
69186;BMP280;56298;49.246;9.410;2022-12-05T00:28:41;99237.81;;;4.28
69186;BMP280;56298;49.246;9.410;2022-12-05T00:31:10;99228.09;;;4.26
69186;BMP280;56298;49.246;9.410;2022-12-05T00:33:36;99247.03;;;4.18
69186;BMP280;56298;49.246;9.410;2022-12-05T00:36:07;99244.75;;;4.11
69186;BMP280;56298;49.246;9.410;2022-12-05T00:38:32;99244.63;;;4.16
69186;BMP280;56298;49.246;9.410;2022-12-05T00:41:06;99247.88;;;4.27
69186;BMP280;56298;49.246;9.410;2022-12-05T00:43:32;99247.75;;;4.32
69186;BMP280;56298;49.246;9.410;2022-12-05T00:46:02;99256.13;;;4.45
69186;BMP280;56298;49.246;9.410;2022-12-05T00:48:27;99250.72;;;4.45
69186;BMP280;56298;49.246;9.410;2022-12-05T00:51:02;99255.44;;;4.39
69186;BMP280;56298;49.246;9.410;2022-12-05T00:53:28;99258.00;;;4.35
69186;BMP280;56298;49.246;9.410;2022-12-05T00:55:53;99255.56;;;4.25
69186;BMP280;56298;49.246;9.410;2022-12-05T00:58:19;99251.09;;;4.29
69186;BMP280;56298;49.246;9.410;2022-12-05T01:00:44;99251.97;;;4.16
69186;BMP280;56298;49.246;9.410;2022-12-05T01:03:09;99259.94;;;4.12
69186;BMP280;56298;49.246;9.410;2022-12-05T01:05:34;99261.59;;;4.22
69186;BMP280;56298;49.246;9.410;2022-12-05T01:08:00;99259.84;;;4.26
69186;BMP280;56298;49.246;9.410;2022-12-05T01:10:25;99257.59;;;4.28
69186;BMP280;56298;49.246;9.410;2022-12-05T01:12:50;99266.06;;;4.26
69186;BMP280;56298;49.246;9.410;2022-12-05T01:15:15;99274.84;;;4.23
69186;BMP280;56298;49.246;9.410;2022-12-05T01:17:41;99264.53;;;4.11
69186;BMP280;56298;49.246;9.410;2022-12-05T01:20:07;99261.13;;;4.06
69186;BMP280;56298;49.246;9.410;2022-12-05T01:22:32;99269.28;;;4.06
69186;BMP280;56298;49.246;9.410;2022-12-05T01:24:58;99270.28;;;4.10
69186;BMP280;56298;49.246;9.410;2022-12-05T01:27:23;99267.75;;;4.13
69186;BMP280;56298;49.246;9.410;2022-12-05T01:29:48;99274.56;;;4.25
69186;BMP280;56298;49.246;9.410;2022-12-05T01:32:13;99275.00;;;4.27
69186;BMP280;56298;49.246;9.410;2022-12-05T01:34:39;99279.53;;;4.32
69186;BMP280;56298;49.246;9.410;2022-12-05T01:37:04;99288.16;;;4.34
69186;BMP280;56298;49.246;9.410;2022-12-05T01:39:29;99288.03;;;4.39
69186;BMP280;56298;49.246;9.410;2022-12-05T01:41:55;99289.31;;;4.42
69186;BMP280;56298;49.246;9.410;2022-12-05T01:46:48;99308.31;;;4.42
69186;BMP280;56298;49.246;9.410;2022-12-05T01:49:16;99303.09;;;4.45
69186;BMP280;56298;49.246;9.410;2022-12-05T01:51:48;99312.03;;;4.46
69186;BMP280;56298;49.246;9.410;2022-12-05T01:54:15;99309.78;;;4.48
69186;BMP280;56298;49.246;9.410;2022-12-05T01:56:45;99313.03;;;4.59
69186;BMP280;56298;49.246;9.410;2022-12-05T01:59:12;99314.34;;;4.61
69186;BMP280;56298;49.246;9.410;2022-12-05T02:01:38;99312.66;;;4.43
69186;BMP280;56298;49.246;9.410;2022-12-05T02:04:04;99321.72;;;4.38
69186;BMP280;56298;49.246;9.410;2022-12-05T02:06:31;99325.25;;;4.38
69186;BMP280;56298;49.246;9.410;2022-12-05T02:08:56;99322.00;;;4.36
69186;BMP280;56298;49.246;9.410;2022-12-05T02:11:23;99325.72;;;4.41
69186;BMP280;56298;49.246;9.410;2022-12-05T02:14:06;99332.28;;;4.39
69186;BMP280;56298;49.246;9.410;2022-12-05T02:31:08;99325.03;;;4.35
69186;BMP280;56298;49.246;9.410;2022-12-05T02:33:40;99338.31;;;4.36
69186;BMP280;56298;49.246;9.410;2022-12-05T02:36:28;99346.84;;;4.44
69186;BMP280;56298;49.246;9.410;2022-12-05T02:39:21;99359.78;;;4.47
69186;BMP280;56298;49.246;9.410;2022-12-05T02:42:05;99350.41;;;4.53
69186;BMP280;56298;49.246;9.410;2022-12-05T02:44:44;99351.81;;;4.50
69186;BMP280;56298;49.246;9.410;2022-12-05T02:47:14;99351.81;;;4.50
69186;BMP280;56298;49.246;9.410;2022-12-05T02:49:42;99346.56;;;4.54
69186;BMP280;56298;49.246;9.410;2022-12-05T02:52:11;99345.97;;;4.57
69186;BMP280;56298;49.246;9.410;2022-12-05T02:54:40;99343.13;;;4.62
69186;BMP280;56298;49.246;9.410;2022-12-05T02:57:07;99338.28;;;4.59
69186;BMP280;56298;49.246;9.410;2022-12-05T02:59:33;99332.50;;;4.52
69186;BMP280;56298;49.246;9.410;2022-12-05T03:01:59;99337.00;;;4.57
69186;BMP280;56298;49.246;9.410;2022-12-05T03:04:25;99340.53;;;4.57
69186;BMP280;56298;49.246;9.410;2022-12-05T03:07:04;99345.63;;;4.59
69186;BMP280;56298;49.246;9.410;2022-12-05T03:09:35;99339.91;;;4.60
69186;BMP280;56298;49.246;9.410;2022-12-05T03:12:09;99351.56;;;4.61
69186;BMP280;56298;49.246;9.410;2022-12-05T03:14:41;99354.31;;;4.70
69186;BMP280;56298;49.246;9.410;2022-12-05T03:17:10;99361.94;;;4.59
69186;BMP280;56298;49.246;9.410;2022-12-05T03:22:07;99384.56;;;4.77
69186;BMP280;56298;49.246;9.410;2022-12-05T03:24:36;99390.38;;;4.61
69186;BMP280;56298;49.246;9.410;2022-12-05T03:29:53;99388.28;;;4.35
69186;BMP280;56298;49.246;9.410;2022-12-05T03:32:23;99398.09;;;4.22
69186;BMP280;56298;49.246;9.410;2022-12-05T03:37:46;99400.91;;;4.17
69186;BMP280;56298;49.246;9.410;2022-12-05T03:43:06;99406.34;;;4.17
69186;BMP280;56298;49.246;9.410;2022-12-05T03:45:53;99405.34;;;4.13
69186;BMP280;56298;49.246;9.410;2022-12-05T03:48:34;99408.84;;;4.13
69186;BMP280;56298;49.246;9.410;2022-12-05T03:51:03;99406.13;;;4.13
69186;BMP280;56298;49.246;9.410;2022-12-05T03:53:49;99416.78;;;4.10
69186;BMP280;56298;49.246;9.410;2022-12-05T03:56:24;99421.94;;;3.97
69186;BMP280;56298;49.246;9.410;2022-12-05T03:59:04;99419.56;;;3.96
69186;BMP280;56298;49.246;9.410;2022-12-05T04:01:32;99410.41;;;3.92
69186;BMP280;56298;49.246;9.410;2022-12-05T04:04:07;99404.75;;;3.88
69186;BMP280;56298;49.246;9.410;2022-12-05T04:06:37;99398.53;;;4.02
69186;BMP280;56298;49.246;9.410;2022-12-05T04:09:17;99393.88;;;4.16
69186;BMP280;56298;49.246;9.410;2022-12-05T04:11:53;99390.06;;;4.17
69186;BMP280;56298;49.246;9.410;2022-12-05T04:14:43;99394.13;;;4.29
69186;BMP280;56298;49.246;9.410;2022-12-05T04:20:12;99400.66;;;4.28
69186;BMP280;56298;49.246;9.410;2022-12-05T04:22:57;99397.94;;;4.28
69186;BMP280;56298;49.246;9.410;2022-12-05T04:25:24;99399.06;;;4.26
69186;BMP280;56298;49.246;9.410;2022-12-05T04:30:56;99404.75;;;4.39
69186;BMP280;56298;49.246;9.410;2022-12-05T04:41:27;99415.16;;;4.23
69186;BMP280;56298;49.246;9.410;2022-12-05T04:43:57;99409.34;;;4.16
69186;BMP280;56298;49.246;9.410;2022-12-05T04:46:23;99412.63;;;4.26
69186;BMP280;56298;49.246;9.410;2022-12-05T04:48:54;99411.78;;;4.17
69186;BMP280;56298;49.246;9.410;2022-12-05T04:51:23;99416.69;;;4.15
69186;BMP280;56298;49.246;9.410;2022-12-05T04:53:53;99413.69;;;4.17
69186;BMP280;56298;49.246;9.410;2022-12-05T04:56:21;99419.81;;;4.22
69186;BMP280;56298;49.246;9.410;2022-12-05T04:58:47;99421.91;;;4.25
69186;BMP280;56298;49.246;9.410;2022-12-05T05:03:44;99424.13;;;4.23
69186;BMP280;56298;49.246;9.410;2022-12-05T05:06:11;99432.38;;;4.18
69186;BMP280;56298;49.246;9.410;2022-12-05T05:08:51;99416.78;;;4.24
69186;BMP280;56298;49.246;9.410;2022-12-05T05:11:29;99425.41;;;4.26
69186;BMP280;56298;49.246;9.410;2022-12-05T05:13:55;99431.31;;;4.28
69186;BMP280;56298;49.246;9.410;2022-12-05T05:16:23;99419.00;;;4.22
69186;BMP280;56298;49.246;9.410;2022-12-05T05:18:49;99428.28;;;4.30
69186;BMP280;56298;49.246;9.410;2022-12-05T05:21:39;99432.81;;;4.34
69186;BMP280;56298;49.246;9.410;2022-12-05T05:24:05;99427.41;;;4.34
69186;BMP280;56298;49.246;9.410;2022-12-05T05:26:34;99436.03;;;4.36
69186;BMP280;56298;49.246;9.410;2022-12-05T05:29:00;99433.84;;;4.38
69186;BMP280;56298;49.246;9.410;2022-12-05T05:31:26;99429.41;;;4.43
69186;BMP280;56298;49.246;9.410;2022-12-05T05:33:53;99443.75;;;4.43
69186;BMP280;56298;49.246;9.410;2022-12-05T05:36:20;99442.03;;;4.47
69186;BMP280;56298;49.246;9.410;2022-12-05T05:38:48;99443.31;;;4.50
69186;BMP280;56298;49.246;9.410;2022-12-05T05:41:16;99443.03;;;4.51
69186;BMP280;56298;49.246;9.410;2022-12-05T05:43:43;99445.72;;;4.51
69186;BMP280;56298;49.246;9.410;2022-12-05T05:46:09;99445.81;;;4.60
69186;BMP280;56298;49.246;9.410;2022-12-05T05:48:34;99442.09;;;4.56
69186;BMP280;56298;49.246;9.410;2022-12-05T05:51:01;99441.41;;;4.50
69186;BMP280;56298;49.246;9.410;2022-12-05T05:53:27;99437.06;;;4.49
69186;BMP280;56298;49.246;9.410;2022-12-05T05:55:52;99442.50;;;4.49
69186;BMP280;56298;49.246;9.410;2022-12-05T05:58:17;99443.03;;;4.51
69186;BMP280;56298;49.246;9.410;2022-12-05T06:00:43;99439.38;;;4.56
69186;BMP280;56298;49.246;9.410;2022-12-05T06:03:08;99448.63;;;4.55
69186;BMP280;56298;49.246;9.410;2022-12-05T06:05:33;99456.97;;;4.59
69186;BMP280;56298;49.246;9.410;2022-12-05T06:07:58;99456.97;;;4.59
69186;BMP280;56298;49.246;9.410;2022-12-05T06:10:24;99464.31;;;4.58
69186;BMP280;56298;49.246;9.410;2022-12-05T06:12:49;99470.75;;;4.62
69186;BMP280;56298;49.246;9.410;2022-12-05T06:15:14;99477.09;;;4.58
69186;BMP280;56298;49.246;9.410;2022-12-05T06:17:40;99478.38;;;4.60
69186;BMP280;56298;49.246;9.410;2022-12-05T06:20:06;99477.50;;;4.51
69186;BMP280;56298;49.246;9.410;2022-12-05T06:22:32;99476.91;;;4.54
69186;BMP280;56298;49.246;9.410;2022-12-05T06:24:58;99485.34;;;4.52
69186;BMP280;56298;49.246;9.410;2022-12-05T06:27:23;99495.31;;;4.57
69186;BMP280;56298;49.246;9.410;2022-12-05T06:29:49;99500.22;;;4.55
69186;BMP280;56298;49.246;9.410;2022-12-05T06:32:14;99494.91;;;4.64
69186;BMP280;56298;49.246;9.410;2022-12-05T06:34:39;99493.19;;;4.54
69186;BMP280;56298;49.246;9.410;2022-12-05T06:37:05;99494.91;;;4.64
69186;BMP280;56298;49.246;9.410;2022-12-05T06:39:30;99494.69;;;4.60
69186;BMP280;56298;49.246;9.410;2022-12-05T06:41:55;99499.69;;;4.67
69186;BMP280;56298;49.246;9.410;2022-12-05T06:44:21;99496.91;;;4.58
69186;BMP280;56298;49.246;9.410;2022-12-05T06:46:48;99512.31;;;4.49
69186;BMP280;56298;49.246;9.410;2022-12-05T06:49:14;99498.47;;;4.36
69186;BMP280;56298;49.246;9.410;2022-12-05T06:51:39;99500.41;;;4.36
69186;BMP280;56298;49.246;9.410;2022-12-05T06:54:04;99501.69;;;4.38
69186;BMP280;56298;49.246;9.410;2022-12-05T06:56:29;99505.72;;;4.41
69186;BMP280;56298;49.246;9.410;2022-12-05T06:58:55;99498.44;;;4.50
69186;BMP280;56298;49.246;9.410;2022-12-05T07:01:23;99498.13;;;4.52
69186;BMP280;56298;49.246;9.410;2022-12-05T07:04:15;99502.75;;;4.51
69186;BMP280;56298;49.246;9.410;2022-12-05T07:06:43;99505.66;;;4.55
69186;BMP280;56298;49.246;9.410;2022-12-05T07:09:09;99519.13;;;4.60
69186;BMP280;56298;49.246;9.410;2022-12-05T07:11:35;99510.19;;;4.60
69186;BMP280;56298;49.246;9.410;2022-12-05T07:14:06;99512.50;;;4.66
69186;BMP280;56298;49.246;9.410;2022-12-05T07:16:33;99516.69;;;4.73
69186;BMP280;56298;49.246;9.410;2022-12-05T07:18:59;99526.13;;;4.75
69186;BMP280;56298;49.246;9.410;2022-12-05T07:21:24;99526.63;;;4.77
69186;BMP280;56298;49.246;9.410;2022-12-05T07:23:49;99525.81;;;4.77
69186;BMP280;56298;49.246;9.410;2022-12-05T07:26:18;99526.63;;;4.77
69186;BMP280;56298;49.246;9.410;2022-12-05T07:28:44;99525.72;;;4.82
69186;BMP280;56298;49.246;9.410;2022-12-05T07:31:15;99528.28;;;4.87
69186;BMP280;56298;49.246;9.410;2022-12-05T07:33:41;99541.34;;;4.99
69186;BMP280;56298;49.246;9.410;2022-12-05T07:36:09;99537.13;;;4.93
69186;BMP280;56298;49.246;9.410;2022-12-05T07:38:34;99540.16;;;4.91
69186;BMP280;56298;49.246;9.410;2022-12-05T07:41:07;99545.28;;;4.93
69186;BMP280;56298;49.246;9.410;2022-12-05T07:43:33;99537.13;;;4.93
69186;BMP280;56298;49.246;9.410;2022-12-05T07:46:05;99550.09;;;4.96
69186;BMP280;56298;49.246;9.410;2022-12-05T07:48:32;99548.75;;;5.07
69186;BMP280;56298;49.246;9.410;2022-12-05T07:51:01;99549.13;;;4.92
69186;BMP280;56298;49.246;9.410;2022-12-05T07:53:28;99540.75;;;5.02
69186;BMP280;56298;49.246;9.410;2022-12-05T07:55:54;99536.75;;;5.09
69186;BMP280;56298;49.246;9.410;2022-12-05T07:58:19;99543.88;;;5.18
69186;BMP280;56298;49.246;9.410;2022-12-05T08:00:45;99544.03;;;5.22
69186;BMP280;56298;49.246;9.410;2022-12-05T08:03:10;99559.50;;;5.36
69186;BMP280;56298;49.246;9.410;2022-12-05T08:05:35;99551.34;;;5.36
69186;BMP280;56298;49.246;9.410;2022-12-05T08:08:01;99556.31;;;5.42
69186;BMP280;56298;49.246;9.410;2022-12-05T08:10:27;99563.06;;;5.45
69186;BMP280;56298;49.246;9.410;2022-12-05T08:12:52;99563.38;;;5.43
69186;BMP280;56298;49.246;9.410;2022-12-05T08:15:17;99568.50;;;5.45
69186;BMP280;56298;49.246;9.410;2022-12-05T08:17:42;99574.84;;;5.40
69186;BMP280;56298;49.246;9.410;2022-12-05T08:20:08;99573.94;;;5.45
69186;BMP280;56298;49.246;9.410;2022-12-05T08:22:33;99577.44;;;5.45
69186;BMP280;56298;49.246;9.410;2022-12-05T08:24:59;99578.56;;;5.44
69186;BMP280;56298;49.246;9.410;2022-12-05T08:27:24;99578.53;;;5.36
69186;BMP280;56298;49.246;9.410;2022-12-05T08:29:49;99584.09;;;5.30
69186;BMP280;56298;49.246;9.410;2022-12-05T08:32:15;99575.09;;;5.21
69186;BMP280;56298;49.246;9.410;2022-12-05T08:34:40;99571.56;;;5.20
69186;BMP280;56298;49.246;9.410;2022-12-05T08:37:06;99578.56;;;5.21
69186;BMP280;56298;49.246;9.410;2022-12-05T08:39:31;99583.41;;;5.25
69186;BMP280;56298;49.246;9.410;2022-12-05T08:41:56;99587.53;;;5.22
69186;BMP280;56298;49.246;9.410;2022-12-05T08:44:22;99583.41;;;5.25
69186;BMP280;56298;49.246;9.410;2022-12-05T08:46:48;99590.41;;;5.17
69186;BMP280;56298;49.246;9.410;2022-12-05T08:49:15;99595.53;;;5.18
69186;BMP280;56298;49.246;9.410;2022-12-05T08:51:41;99612.16;;;5.17
69186;BMP280;56298;49.246;9.410;2022-12-05T08:54:07;99607.56;;;5.26
69186;BMP280;56298;49.246;9.410;2022-12-05T08:56:32;99609.63;;;5.20
69186;BMP280;56298;49.246;9.410;2022-12-05T08:58:58;99605.97;;;5.25
69186;BMP280;56298;49.246;9.410;2022-12-05T09:01:24;99601.25;;;5.40
69186;BMP280;56298;49.246;9.410;2022-12-05T09:03:56;99602.72;;;5.37
69186;BMP280;56298;49.246;9.410;2022-12-05T09:06:23;99603.16;;;5.39
69186;BMP280;56298;49.246;9.410;2022-12-05T09:08:53;99612.47;;;5.38
69186;BMP280;56298;49.246;9.410;2022-12-05T09:11:21;99616.34;;;5.46
69186;BMP280;56298;49.246;9.410;2022-12-05T09:13:49;99620.38;;;5.57
69186;BMP280;56298;49.246;9.410;2022-12-05T09:16:20;99615.66;;;5.72
69186;BMP280;56298;49.246;9.410;2022-12-05T09:18:47;99614.22;;;5.66
69186;BMP280;56298;49.246;9.410;2022-12-05T09:21:21;99617.13;;;5.69
69186;BMP280;56298;49.246;9.410;2022-12-05T09:23:47;99621.81;;;5.78
69186;BMP280;56298;49.246;9.410;2022-12-05T09:26:15;99620.06;;;5.82
69186;BMP280;56298;49.246;9.410;2022-12-05T09:28:41;99624.44;;;5.92
69186;BMP280;56298;49.246;9.410;2022-12-05T09:31:09;99631.34;;;5.98
69186;BMP280;56298;49.246;9.410;2022-12-05T09:33:36;99631.31;;;5.89
69186;BMP280;56298;49.246;9.410;2022-12-05T09:36:07;99638.81;;;5.83
69186;BMP280;56298;49.246;9.410;2022-12-05T09:38:33;99641.66;;;5.78
69186;BMP280;56298;49.246;9.410;2022-12-05T09:41:07;99639.25;;;5.77
69186;BMP280;56298;49.246;9.410;2022-12-05T09:43:51;99635.53;;;5.72
69186;BMP280;56298;49.246;9.410;2022-12-05T09:46:29;99633.81;;;5.77
69186;BMP280;56298;49.246;9.410;2022-12-05T09:48:58;99642.03;;;5.85
69186;BMP280;56298;49.246;9.410;2022-12-05T09:51:25;99636.91;;;5.84
69186;BMP280;56298;49.246;9.410;2022-12-05T09:53:51;99636.28;;;5.87
69186;BMP280;56298;49.246;9.410;2022-12-05T09:58:45;99640.53;;;6.11
69186;BMP280;56298;49.246;9.410;2022-12-05T10:01:35;99637.09;;;5.96
69186;BMP280;56298;49.246;9.410;2022-12-05T10:04:18;99649.88;;;5.87
69186;BMP280;56298;49.246;9.410;2022-12-05T10:07:42;99647.28;;;5.82
69186;BMP280;56298;49.246;9.410;2022-12-05T10:13:02;99643.44;;;5.60
69186;BMP280;56298;49.246;9.410;2022-12-05T10:18:07;99648.69;;;5.70
69186;BMP280;56298;49.246;9.410;2022-12-05T10:20:46;99643.09;;;5.75
69186;BMP280;56298;49.246;9.410;2022-12-05T10:26:16;99643.09;;;5.75
69186;BMP280;56298;49.246;9.410;2022-12-05T10:31:42;99635.41;;;5.78
69186;BMP280;56298;49.246;9.410;2022-12-05T10:34:30;99638.94;;;5.78
69186;BMP280;56298;49.246;9.410;2022-12-05T10:37:01;99643.28;;;5.88
69186;BMP280;56298;49.246;9.410;2022-12-05T10:39:29;99641.88;;;5.91
69186;BMP280;56298;49.246;9.410;2022-12-05T10:41:54;99641.56;;;5.92
69186;BMP280;56298;49.246;9.410;2022-12-05T10:44:21;99643.19;;;5.93
69186;BMP280;56298;49.246;9.410;2022-12-05T10:46:46;99649.47;;;6.02
69186;BMP280;56298;49.246;9.410;2022-12-05T10:49:12;99650.41;;;5.98
69186;BMP280;56298;49.246;9.410;2022-12-05T10:51:38;99654.44;;;6.00
69186;BMP280;56298;49.246;9.410;2022-12-05T10:54:23;99646.41;;;6.04
69186;BMP280;56298;49.246;9.410;2022-12-05T10:56:51;99642.47;;;6.10
69186;BMP280;56298;49.246;9.410;2022-12-05T10:59:22;99636.06;;;6.15
69186;BMP280;56298;49.246;9.410;2022-12-05T11:01:50;99644.81;;;6.03
69186;BMP280;56298;49.246;9.410;2022-12-05T11:04:29;99646.94;;;6.06
69186;BMP280;56298;49.246;9.410;2022-12-05T11:07:03;99650.75;;;6.05
69186;BMP280;56298;49.246;9.410;2022-12-05T11:09:34;99646.75;;;6.02
69186;BMP280;56298;49.246;9.410;2022-12-05T11:14:56;99635.59;;;6.13
69186;BMP280;56298;49.246;9.410;2022-12-05T11:17:25;99646.81;;;6.20
69186;BMP280;56298;49.246;9.410;2022-12-05T11:19:50;99637.09;;;6.37
69186;BMP280;56298;49.246;9.410;2022-12-05T11:22:16;99629.78;;;6.55
69186;BMP280;56298;49.246;9.410;2022-12-05T11:24:41;99630.41;;;6.52
69186;BMP280;56298;49.246;9.410;2022-12-05T11:32:30;99626.44;;;7.20
69186;BMP280;56298;49.246;9.410;2022-12-05T11:37:36;99629.16;;;7.37
69186;BMP280;56298;49.246;9.410;2022-12-05T11:40:16;99627.91;;;7.26
69186;BMP280;56298;49.246;9.410;2022-12-05T11:49:07;99624.22;;;6.69
69186;BMP280;56298;49.246;9.410;2022-12-05T11:51:55;99619.84;;;6.50
69186;BMP280;56298;49.246;9.410;2022-12-05T11:57:20;99620.47;;;6.38
69186;BMP280;56298;49.246;9.410;2022-12-05T12:00:03;99618.19;;;6.32
69186;BMP280;56298;49.246;9.410;2022-12-05T12:02:54;99623.47;;;6.28
69186;BMP280;56298;49.246;9.410;2022-12-05T12:16:46;99622.31;;;6.20
69186;BMP280;56298;49.246;9.410;2022-12-05T12:19:24;99620.88;;;6.23
69186;BMP280;56298;49.246;9.410;2022-12-05T12:25:22;99606.03;;;6.47
69186;BMP280;56298;49.246;9.410;2022-12-05T12:30:48;99608.75;;;6.38
69186;BMP280;56298;49.246;9.410;2022-12-05T12:33:57;99610.19;;;6.35
69186;BMP280;56298;49.246;9.410;2022-12-05T12:36:45;99613.59;;;6.41
69186;BMP280;56298;49.246;9.410;2022-12-05T12:47:40;99604.75;;;6.35
69186;BMP280;56298;49.246;9.410;2022-12-05T12:50:16;99596.88;;;6.34
69186;BMP280;56298;49.246;9.410;2022-12-05T12:55:43;99600.13;;;6.45
69186;BMP280;56298;49.246;9.410;2022-12-05T13:01:30;99585.22;;;6.51
69186;BMP280;56298;49.246;9.410;2022-12-05T13:06:48;99584.63;;;6.72
69186;BMP280;56298;49.246;9.410;2022-12-05T13:09:18;99591.19;;;6.70
69186;BMP280;56298;49.246;9.410;2022-12-05T13:11:46;99592.59;;;6.68
69186;BMP280;56298;49.246;9.410;2022-12-05T13:14:16;99594.88;;;6.57
69186;BMP280;56298;49.246;9.410;2022-12-05T13:16:45;99595.78;;;6.61
69186;BMP280;56298;49.246;9.410;2022-12-05T13:19:41;99598.06;;;6.68
69186;BMP280;56298;49.246;9.410;2022-12-05T13:22:08;99599.69;;;6.69
69186;BMP280;56298;49.246;9.410;2022-12-05T13:24:34;99601.41;;;6.56
69186;BMP280;56298;49.246;9.410;2022-12-05T13:27:01;99609.13;;;6.45
69186;BMP280;56298;49.246;9.410;2022-12-05T13:29:35;99603.00;;;6.48
69186;BMP280;56298;49.246;9.410;2022-12-05T13:32:04;99604.13;;;6.47
69186;BMP280;56298;49.246;9.410;2022-12-05T13:36:59;99611.03;;;6.53
69186;BMP280;56298;49.246;9.410;2022-12-05T13:39:52;99615.81;;;6.48
69186;BMP280;56298;49.246;9.410;2022-12-05T13:42:37;99611.16;;;6.39
69186;BMP280;56298;49.246;9.410;2022-12-05T13:47:35;99611.47;;;6.29
69186;BMP280;56298;49.246;9.410;2022-12-05T13:50:22;99616.75;;;6.34
69186;BMP280;56298;49.246;9.410;2022-12-05T13:53:00;99619.66;;;6.38
69186;BMP280;56298;49.246;9.410;2022-12-05T13:55:33;99618.03;;;6.37
69186;BMP280;56298;49.246;9.410;2022-12-05T13:58:00;99620.00;;;6.45
69186;BMP280;56298;49.246;9.410;2022-12-05T14:00:34;99619.50;;;6.43
69186;BMP280;56298;49.246;9.410;2022-12-05T14:05:50;99616.25;;;6.32
69186;BMP280;56298;49.246;9.410;2022-12-05T14:15:49;99642.38;;;6.33
69186;BMP280;56298;49.246;9.410;2022-12-05T14:18:19;99642.53;;;6.28
69186;BMP280;56298;49.246;9.410;2022-12-05T14:31:42;99649.06;;;6.18
69186;BMP280;56298;49.246;9.410;2022-12-05T14:34:21;99649.50;;;6.11
69186;BMP280;56298;49.246;9.410;2022-12-05T14:36:58;99650.97;;;6.18
69186;BMP280;56298;49.246;9.410;2022-12-05T14:39:37;99646.97;;;6.15
69186;BMP280;56298;49.246;9.410;2022-12-05T14:44:53;99646.97;;;6.15
69186;BMP280;56298;49.246;9.410;2022-12-05T14:47:23;99647.09;;;6.10
69186;BMP280;56298;49.246;9.410;2022-12-05T14:50:11;99651.44;;;6.11
69186;BMP280;56298;49.246;9.410;2022-12-05T14:55:39;99649.50;;;6.11
69186;BMP280;56298;49.246;9.410;2022-12-05T15:01:15;99639.53;;;6.07
69186;BMP280;56298;49.246;9.410;2022-12-05T15:04:08;99648.03;;;6.05
69186;BMP280;56298;49.246;9.410;2022-12-05T15:06:47;99644.50;;;6.05
69186;BMP280;56298;49.246;9.410;2022-12-05T15:09:39;99645.63;;;6.04
69186;BMP280;56298;49.246;9.410;2022-12-05T15:12:27;99647.72;;;6.07
69186;BMP280;56298;49.246;9.410;2022-12-05T15:17:34;99653.94;;;5.98
69186;BMP280;56298;49.246;9.410;2022-12-05T15:20:07;99641.78;;;5.96
69186;BMP280;56298;49.246;9.410;2022-12-05T15:22:36;99649.72;;;5.92
69186;BMP280;56298;49.246;9.410;2022-12-05T15:27:53;99649.41;;;5.94
69186;BMP280;56298;49.246;9.410;2022-12-05T15:30:18;99648.81;;;5.97
69186;BMP280;56298;49.246;9.410;2022-12-05T15:32:44;99647.53;;;6.03
69186;BMP280;56298;49.246;9.410;2022-12-05T15:35:10;99639.69;;;6.01
69186;BMP280;56298;49.246;9.410;2022-12-05T15:37:50;99647.69;;;5.98
69186;BMP280;56298;49.246;9.410;2022-12-05T15:40:19;99650.41;;;5.98
69186;BMP280;56298;49.246;9.410;2022-12-05T15:42:51;99647.50;;;5.94
69186;BMP280;56298;49.246;9.410;2022-12-05T15:47:49;99651.31;;;5.84
69186;BMP280;56298;49.246;9.410;2022-12-05T15:53:03;99655.44;;;5.82
69186;BMP280;56298;49.246;9.410;2022-12-05T15:55:37;99654.53;;;5.86
69186;BMP280;56298;49.246;9.410;2022-12-05T15:58:16;99665.56;;;5.90
69186;BMP280;56298;49.246;9.410;2022-12-05T16:00:46;99666.69;;;5.89
69186;BMP280;56298;49.246;9.410;2022-12-05T16:06:24;99665.56;;;5.90
69186;BMP280;56298;49.246;9.410;2022-12-05T16:08:52;99658.69;;;5.84
69186;BMP280;56298;49.246;9.410;2022-12-05T16:11:17;99660.44;;;5.88
69186;BMP280;56298;49.246;9.410;2022-12-05T16:14:04;99666.22;;;5.87
69186;BMP280;56298;49.246;9.410;2022-12-05T16:16:33;99666.34;;;5.91
69186;BMP280;56298;49.246;9.410;2022-12-05T16:19:17;99666.22;;;5.87
69186;BMP280;56298;49.246;9.410;2022-12-05T16:21:47;99669.22;;;5.85
69186;BMP280;56298;49.246;9.410;2022-12-05T16:24:27;99664.13;;;5.84
69186;BMP280;56298;49.246;9.410;2022-12-05T16:29:27;99685.06;;;5.83
69186;BMP280;56298;49.246;9.410;2022-12-05T16:31:58;99680.19;;;5.71
69186;BMP280;56298;49.246;9.410;2022-12-05T16:34:25;99678.91;;;5.69
69186;BMP280;56298;49.246;9.410;2022-12-05T16:36:53;99679.41;;;5.71
69186;BMP280;56298;49.246;9.410;2022-12-05T16:39:20;99676.78;;;5.66
69186;BMP280;56298;49.246;9.410;2022-12-05T16:41:46;99680.16;;;5.63
69186;BMP280;56298;49.246;9.410;2022-12-05T16:46:53;99675.78;;;5.61
69186;BMP280;56298;49.246;9.410;2022-12-05T16:49:34;99676.25;;;5.55
69186;BMP280;56298;49.246;9.410;2022-12-05T16:52:12;99672.53;;;5.51
69186;BMP280;56298;49.246;9.410;2022-12-05T16:54:38;99676.56;;;5.53
69186;BMP280;56298;49.246;9.410;2022-12-05T16:57:04;99665.78;;;5.48
69186;BMP280;56298;49.246;9.410;2022-12-05T16:59:34;99673.03;;;5.53
69186;BMP280;56298;49.246;9.410;2022-12-05T17:02:06;99669.50;;;5.52
69186;BMP280;56298;49.246;9.410;2022-12-05T17:04:34;99673.53;;;5.55
69186;BMP280;56298;49.246;9.410;2022-12-05T17:06:59;99676.25;;;5.55
69186;BMP280;56298;49.246;9.410;2022-12-05T17:09:24;99682.16;;;5.57
69186;BMP280;56298;49.246;9.410;2022-12-05T17:11:53;99684.88;;;5.57
69186;BMP280;56298;49.246;9.410;2022-12-05T17:14:20;99686.00;;;5.56
69186;BMP280;56298;49.246;9.410;2022-12-05T17:16:46;99687.75;;;5.52
69186;BMP280;56298;49.246;9.410;2022-12-05T17:19:11;99687.34;;;5.44
69186;BMP280;56298;49.246;9.410;2022-12-05T17:21:38;99685.50;;;5.54
69186;BMP280;56298;49.246;9.410;2022-12-05T17:24:06;99693.03;;;5.57
69186;BMP280;56298;49.246;9.410;2022-12-05T17:26:31;99705.53;;;5.58